sensor_id;sensor_type;location;lat;lon;timestamp;P1;durP1;ratioP1;P2;durP2;ratioP2
60867;SDS011;46702;48.370;10.794;2024-03-02T00:02:06;70.80;;;11.43;;
60867;SDS011;46702;48.370;10.794;2024-03-02T00:04:32;44.15;;;9.27;;
60867;SDS011;46702;48.370;10.794;2024-03-02T00:06:57;23.25;;;5.28;;
60867;SDS011;46702;48.370;10.794;2024-03-02T00:09:23;5.82;;;4.57;;
60867;SDS011;46702;48.370;10.794;2024-03-02T00:11:49;6.28;;;4.60;;
60867;SDS011;46702;48.370;10.794;2024-03-02T00:14:16;5.47;;;4.53;;
60867;SDS011;46702;48.370;10.794;2024-03-02T00:16:41;6.10;;;4.72;;
60867;SDS011;46702;48.370;10.794;2024-03-02T00:19:08;5.97;;;4.57;;
60867;SDS011;46702;48.370;10.794;2024-03-02T00:21:35;5.03;;;4.20;;
60867;SDS011;46702;48.370;10.794;2024-03-02T00:24:01;5.20;;;4.38;;
60867;SDS011;46702;48.370;10.794;2024-03-02T00:26:54;5.50;;;4.10;;
60867;SDS011;46702;48.370;10.794;2024-03-02T00:29:20;4.38;;;3.97;;
60867;SDS011;46702;48.370;10.794;2024-03-02T00:31:46;5.70;;;4.70;;
60867;SDS011;46702;48.370;10.794;2024-03-02T00:34:13;4.85;;;4.32;;
60867;SDS011;46702;48.370;10.794;2024-03-02T00:36:41;5.47;;;4.57;;
60867;SDS011;46702;48.370;10.794;2024-03-02T00:39:07;5.18;;;4.55;;
60867;SDS011;46702;48.370;10.794;2024-03-02T00:41:33;6.45;;;4.60;;
60867;SDS011;46702;48.370;10.794;2024-03-02T00:46:38;8.02;;;5.20;;
60867;SDS011;46702;48.370;10.794;2024-03-02T00:49:05;6.40;;;4.73;;
60867;SDS011;46702;48.370;10.794;2024-03-02T00:51:46;8.73;;;5.68;;
60867;SDS011;46702;48.370;10.794;2024-03-02T00:54:19;6.65;;;5.72;;
60867;SDS011;46702;48.370;10.794;2024-03-02T00:56:50;8.10;;;5.68;;
60867;SDS011;46702;48.370;10.794;2024-03-02T00:59:20;11.27;;;6.22;;
60867;SDS011;46702;48.370;10.794;2024-03-02T01:01:47;8.90;;;5.95;;
60867;SDS011;46702;48.370;10.794;2024-03-02T01:04:14;18.77;;;6.60;;
60867;SDS011;46702;48.370;10.794;2024-03-02T01:06:40;6.03;;;5.18;;
60867;SDS011;46702;48.370;10.794;2024-03-02T01:09:07;5.68;;;4.47;;
60867;SDS011;46702;48.370;10.794;2024-03-02T01:11:33;7.70;;;5.63;;
60867;SDS011;46702;48.370;10.794;2024-03-02T01:13:58;7.05;;;5.20;;
60867;SDS011;46702;48.370;10.794;2024-03-02T01:16:24;9.68;;;6.10;;
60867;SDS011;46702;48.370;10.794;2024-03-02T01:18:50;8.30;;;5.28;;
60867;SDS011;46702;48.370;10.794;2024-03-02T01:21:15;8.90;;;5.72;;
60867;SDS011;46702;48.370;10.794;2024-03-02T01:23:41;7.03;;;5.32;;
60867;SDS011;46702;48.370;10.794;2024-03-02T01:26:07;7.75;;;5.75;;
60867;SDS011;46702;48.370;10.794;2024-03-02T01:28:33;8.00;;;5.57;;
60867;SDS011;46702;48.370;10.794;2024-03-02T01:30:58;6.50;;;4.95;;
60867;SDS011;46702;48.370;10.794;2024-03-02T01:33:24;9.27;;;5.68;;
60867;SDS011;46702;48.370;10.794;2024-03-02T01:35:50;6.97;;;5.05;;
60867;SDS011;46702;48.370;10.794;2024-03-02T01:38:15;8.50;;;6.15;;
60867;SDS011;46702;48.370;10.794;2024-03-02T01:40:41;7.25;;;5.63;;
60867;SDS011;46702;48.370;10.794;2024-03-02T01:43:09;8.50;;;5.70;;
60867;SDS011;46702;48.370;10.794;2024-03-02T01:45:35;10.32;;;5.43;;
60867;SDS011;46702;48.370;10.794;2024-03-02T01:48:02;7.03;;;4.72;;
60867;SDS011;46702;48.370;10.794;2024-03-02T01:50:29;6.70;;;5.47;;
60867;SDS011;46702;48.370;10.794;2024-03-02T01:52:57;5.35;;;4.78;;
60867;SDS011;46702;48.370;10.794;2024-03-02T01:55:23;5.68;;;4.80;;
60867;SDS011;46702;48.370;10.794;2024-03-02T01:57:49;7.72;;;5.35;;
60867;SDS011;46702;48.370;10.794;2024-03-02T02:00:20;5.22;;;4.15;;
60867;SDS011;46702;48.370;10.794;2024-03-02T02:02:47;4.90;;;3.83;;
60867;SDS011;46702;48.370;10.794;2024-03-02T02:05:14;5.00;;;4.55;;
60867;SDS011;46702;48.370;10.794;2024-03-02T02:07:40;4.45;;;4.05;;
60867;SDS011;46702;48.370;10.794;2024-03-02T02:10:07;6.05;;;5.15;;
60867;SDS011;46702;48.370;10.794;2024-03-02T02:12:33;5.03;;;4.45;;
60867;SDS011;46702;48.370;10.794;2024-03-02T02:14:59;10.43;;;5.30;;
60867;SDS011;46702;48.370;10.794;2024-03-02T02:17:25;6.28;;;4.85;;
60867;SDS011;46702;48.370;10.794;2024-03-02T02:19:51;19.98;;;5.90;;
60867;SDS011;46702;48.370;10.794;2024-03-02T02:22:17;7.43;;;5.47;;
60867;SDS011;46702;48.370;10.794;2024-03-02T02:24:43;6.47;;;4.90;;
60867;SDS011;46702;48.370;10.794;2024-03-02T02:27:08;7.22;;;5.45;;
60867;SDS011;46702;48.370;10.794;2024-03-02T02:29:35;8.75;;;5.68;;
60867;SDS011;46702;48.370;10.794;2024-03-02T02:32:01;7.85;;;5.35;;
60867;SDS011;46702;48.370;10.794;2024-03-02T02:34:26;8.40;;;5.80;;
60867;SDS011;46702;48.370;10.794;2024-03-02T02:36:52;7.88;;;5.88;;
60867;SDS011;46702;48.370;10.794;2024-03-02T02:39:18;9.15;;;6.70;;
60867;SDS011;46702;48.370;10.794;2024-03-02T02:41:46;8.32;;;6.25;;
60867;SDS011;46702;48.370;10.794;2024-03-02T02:44:12;7.95;;;5.78;;
60867;SDS011;46702;48.370;10.794;2024-03-02T02:46:38;7.25;;;5.55;;
60867;SDS011;46702;48.370;10.794;2024-03-02T02:49:04;7.68;;;6.15;;
60867;SDS011;46702;48.370;10.794;2024-03-02T02:51:30;5.55;;;4.90;;
60867;SDS011;46702;48.370;10.794;2024-03-02T02:53:56;5.88;;;5.10;;
60867;SDS011;46702;48.370;10.794;2024-03-02T02:56:21;5.72;;;4.88;;
60867;SDS011;46702;48.370;10.794;2024-03-02T02:58:47;4.97;;;4.43;;
60867;SDS011;46702;48.370;10.794;2024-03-02T03:01:13;6.30;;;5.05;;
60867;SDS011;46702;48.370;10.794;2024-03-02T03:03:42;6.88;;;5.05;;
60867;SDS011;46702;48.370;10.794;2024-03-02T03:06:11;6.22;;;4.95;;
60867;SDS011;46702;48.370;10.794;2024-03-02T03:08:37;6.97;;;4.55;;
60867;SDS011;46702;48.370;10.794;2024-03-02T03:11:06;6.82;;;5.53;;
60867;SDS011;46702;48.370;10.794;2024-03-02T03:13:32;8.85;;;5.95;;
60867;SDS011;46702;48.370;10.794;2024-03-02T03:15:58;8.35;;;5.80;;
60867;SDS011;46702;48.370;10.794;2024-03-02T03:18:24;6.55;;;5.60;;
60867;SDS011;46702;48.370;10.794;2024-03-02T03:20:50;10.13;;;5.93;;
60867;SDS011;46702;48.370;10.794;2024-03-02T03:23:15;7.50;;;5.72;;
60867;SDS011;46702;48.370;10.794;2024-03-02T03:25:42;7.35;;;6.13;;
60867;SDS011;46702;48.370;10.794;2024-03-02T03:28:08;7.38;;;5.88;;
60867;SDS011;46702;48.370;10.794;2024-03-02T03:30:37;8.85;;;6.50;;
60867;SDS011;46702;48.370;10.794;2024-03-02T03:33:03;10.40;;;6.10;;
60867;SDS011;46702;48.370;10.794;2024-03-02T03:35:32;7.43;;;5.60;;
60867;SDS011;46702;48.370;10.794;2024-03-02T03:37:58;8.88;;;5.90;;
60867;SDS011;46702;48.370;10.794;2024-03-02T03:40:24;6.88;;;5.03;;
60867;SDS011;46702;48.370;10.794;2024-03-02T03:42:50;7.10;;;4.38;;
60867;SDS011;46702;48.370;10.794;2024-03-02T03:45:15;7.78;;;5.28;;
60867;SDS011;46702;48.370;10.794;2024-03-02T03:47:41;6.43;;;4.78;;
60867;SDS011;46702;48.370;10.794;2024-03-02T03:50:07;5.30;;;4.68;;
60867;SDS011;46702;48.370;10.794;2024-03-02T03:52:33;5.35;;;4.32;;
60867;SDS011;46702;48.370;10.794;2024-03-02T03:54:59;8.95;;;6.50;;
60867;SDS011;46702;48.370;10.794;2024-03-02T03:57:25;14.77;;;8.82;;
60867;SDS011;46702;48.370;10.794;2024-03-02T03:59:52;15.65;;;8.40;;
60867;SDS011;46702;48.370;10.794;2024-03-02T04:02:18;15.25;;;7.55;;
60867;SDS011;46702;48.370;10.794;2024-03-02T04:04:43;14.35;;;7.90;;
60867;SDS011;46702;48.370;10.794;2024-03-02T04:07:09;18.63;;;8.95;;
60867;SDS011;46702;48.370;10.794;2024-03-02T04:09:34;16.20;;;8.23;;
60867;SDS011;46702;48.370;10.794;2024-03-02T04:12:00;15.65;;;9.63;;
60867;SDS011;46702;48.370;10.794;2024-03-02T04:14:26;16.20;;;7.95;;
60867;SDS011;46702;48.370;10.794;2024-03-02T04:16:51;14.95;;;7.47;;
60867;SDS011;46702;48.370;10.794;2024-03-02T04:19:17;11.85;;;7.10;;
60867;SDS011;46702;48.370;10.794;2024-03-02T04:21:42;8.38;;;6.30;;
60867;SDS011;46702;48.370;10.794;2024-03-02T04:24:08;10.90;;;6.38;;
60867;SDS011;46702;48.370;10.794;2024-03-02T04:26:33;8.82;;;6.20;;
60867;SDS011;46702;48.370;10.794;2024-03-02T04:28:59;8.88;;;5.90;;
60867;SDS011;46702;48.370;10.794;2024-03-02T04:31:25;7.85;;;5.55;;
60867;SDS011;46702;48.370;10.794;2024-03-02T04:33:50;7.57;;;5.78;;
60867;SDS011;46702;48.370;10.794;2024-03-02T04:36:16;11.20;;;5.63;;
60867;SDS011;46702;48.370;10.794;2024-03-02T04:38:41;10.18;;;5.88;;
60867;SDS011;46702;48.370;10.794;2024-03-02T04:41:07;7.93;;;6.07;;
60867;SDS011;46702;48.370;10.794;2024-03-02T04:43:33;10.05;;;6.30;;
60867;SDS011;46702;48.370;10.794;2024-03-02T04:45:59;8.07;;;5.25;;
60867;SDS011;46702;48.370;10.794;2024-03-02T04:48:25;6.85;;;5.00;;
60867;SDS011;46702;48.370;10.794;2024-03-02T04:50:51;7.10;;;5.50;;
60867;SDS011;46702;48.370;10.794;2024-03-02T04:53:17;13.52;;;4.97;;
60867;SDS011;46702;48.370;10.794;2024-03-02T04:55:43;6.90;;;5.07;;
60867;SDS011;46702;48.370;10.794;2024-03-02T04:58:08;6.85;;;4.78;;
60867;SDS011;46702;48.370;10.794;2024-03-02T05:00:34;7.45;;;5.18;;
60867;SDS011;46702;48.370;10.794;2024-03-02T05:03:00;7.32;;;5.32;;
60867;SDS011;46702;48.370;10.794;2024-03-02T05:05:26;7.88;;;4.80;;
60867;SDS011;46702;48.370;10.794;2024-03-02T05:07:52;7.72;;;5.53;;
60867;SDS011;46702;48.370;10.794;2024-03-02T05:10:18;6.97;;;5.22;;
60867;SDS011;46702;48.370;10.794;2024-03-02T05:12:43;6.60;;;5.13;;
60867;SDS011;46702;48.370;10.794;2024-03-02T05:15:15;6.45;;;5.20;;
60867;SDS011;46702;48.370;10.794;2024-03-02T05:17:41;10.05;;;7.10;;
60867;SDS011;46702;48.370;10.794;2024-03-02T05:20:10;9.10;;;6.43;;
60867;SDS011;46702;48.370;10.794;2024-03-02T05:22:36;10.07;;;6.50;;
60867;SDS011;46702;48.370;10.794;2024-03-02T05:25:03;9.68;;;6.43;;
60867;SDS011;46702;48.370;10.794;2024-03-02T05:27:29;9.40;;;5.93;;
60867;SDS011;46702;48.370;10.794;2024-03-02T05:29:55;11.60;;;7.82;;
60867;SDS011;46702;48.370;10.794;2024-03-02T05:32:21;57.53;;;10.02;;
60867;SDS011;46702;48.370;10.794;2024-03-02T05:34:46;8.88;;;5.95;;
60867;SDS011;46702;48.370;10.794;2024-03-02T05:37:12;8.32;;;6.35;;
60867;SDS011;46702;48.370;10.794;2024-03-02T05:39:38;9.88;;;6.07;;
60867;SDS011;46702;48.370;10.794;2024-03-02T05:42:03;34.45;;;13.63;;
60867;SDS011;46702;48.370;10.794;2024-03-02T05:44:29;28.20;;;12.68;;
60867;SDS011;46702;48.370;10.794;2024-03-02T05:46:55;21.45;;;11.82;;
60867;SDS011;46702;48.370;10.794;2024-03-02T05:49:21;10.57;;;7.07;;
60867;SDS011;46702;48.370;10.794;2024-03-02T05:51:47;11.60;;;7.30;;
60867;SDS011;46702;48.370;10.794;2024-03-02T05:54:13;9.32;;;6.40;;
60867;SDS011;46702;48.370;10.794;2024-03-02T05:56:38;9.02;;;5.72;;
60867;SDS011;46702;48.370;10.794;2024-03-02T05:59:04;11.68;;;6.93;;
60867;SDS011;46702;48.370;10.794;2024-03-02T06:01:41;5.03;;;4.03;;
60867;SDS011;46702;48.370;10.794;2024-03-02T06:04:08;4.82;;;3.92;;
60867;SDS011;46702;48.370;10.794;2024-03-02T06:06:37;12.23;;;4.30;;
60867;SDS011;46702;48.370;10.794;2024-03-02T06:09:03;5.75;;;4.05;;
60867;SDS011;46702;48.370;10.794;2024-03-02T06:11:35;16.60;;;5.25;;
60867;SDS011;46702;48.370;10.794;2024-03-02T06:14:02;3.40;;;3.10;;
60867;SDS011;46702;48.370;10.794;2024-03-02T06:16:32;5.22;;;4.28;;
60867;SDS011;46702;48.370;10.794;2024-03-02T06:18:58;21.20;;;5.03;;
60867;SDS011;46702;48.370;10.794;2024-03-02T06:21:24;3.83;;;3.40;;
60867;SDS011;46702;48.370;10.794;2024-03-02T06:23:50;4.65;;;4.15;;
60867;SDS011;46702;48.370;10.794;2024-03-02T06:26:16;7.47;;;4.10;;
60867;SDS011;46702;48.370;10.794;2024-03-02T06:28:43;24.27;;;5.10;;
60867;SDS011;46702;48.370;10.794;2024-03-02T06:31:21;6.60;;;4.25;;
60867;SDS011;46702;48.370;10.794;2024-03-02T06:33:47;6.20;;;4.15;;
60867;SDS011;46702;48.370;10.794;2024-03-02T06:36:13;5.38;;;4.60;;
60867;SDS011;46702;48.370;10.794;2024-03-02T06:38:40;8.23;;;4.75;;
60867;SDS011;46702;48.370;10.794;2024-03-02T06:41:06;6.40;;;4.47;;
60867;SDS011;46702;48.370;10.794;2024-03-02T06:43:31;15.52;;;4.50;;
60867;SDS011;46702;48.370;10.794;2024-03-02T06:45:57;5.93;;;3.95;;
60867;SDS011;46702;48.370;10.794;2024-03-02T06:48:23;6.65;;;4.40;;
60867;SDS011;46702;48.370;10.794;2024-03-02T06:50:49;4.75;;;4.28;;
60867;SDS011;46702;48.370;10.794;2024-03-02T06:53:17;5.13;;;4.10;;
60867;SDS011;46702;48.370;10.794;2024-03-02T06:55:46;4.90;;;4.40;;
60867;SDS011;46702;48.370;10.794;2024-03-02T06:58:12;6.35;;;4.53;;
60867;SDS011;46702;48.370;10.794;2024-03-02T07:00:40;4.53;;;3.92;;
60867;SDS011;46702;48.370;10.794;2024-03-02T07:03:06;6.05;;;4.05;;
60867;SDS011;46702;48.370;10.794;2024-03-02T07:05:31;6.40;;;4.40;;
60867;SDS011;46702;48.370;10.794;2024-03-02T07:07:57;10.55;;;4.20;;
60867;SDS011;46702;48.370;10.794;2024-03-02T07:10:23;6.00;;;4.20;;
60867;SDS011;46702;48.370;10.794;2024-03-02T07:12:49;4.28;;;3.88;;
60867;SDS011;46702;48.370;10.794;2024-03-02T07:15:14;4.63;;;3.72;;
60867;SDS011;46702;48.370;10.794;2024-03-02T07:17:52;5.07;;;4.40;;
60867;SDS011;46702;48.370;10.794;2024-03-02T07:20:17;5.97;;;4.68;;
60867;SDS011;46702;48.370;10.794;2024-03-02T07:22:52;6.03;;;4.68;;
60867;SDS011;46702;48.370;10.794;2024-03-02T07:25:18;6.90;;;5.43;;
60867;SDS011;46702;48.370;10.794;2024-03-02T07:27:43;6.78;;;4.88;;
60867;SDS011;46702;48.370;10.794;2024-03-02T07:30:09;6.30;;;5.50;;
60867;SDS011;46702;48.370;10.794;2024-03-02T07:32:38;7.72;;;5.05;;
60867;SDS011;46702;48.370;10.794;2024-03-02T07:35:04;8.05;;;6.03;;
60867;SDS011;46702;48.370;10.794;2024-03-02T07:37:30;6.22;;;5.40;;
60867;SDS011;46702;48.370;10.794;2024-03-02T07:39:56;7.40;;;6.43;;
60867;SDS011;46702;48.370;10.794;2024-03-02T07:42:22;7.32;;;5.78;;
60867;SDS011;46702;48.370;10.794;2024-03-02T07:44:47;9.95;;;5.90;;
60867;SDS011;46702;48.370;10.794;2024-03-02T07:47:13;7.53;;;5.97;;
60867;SDS011;46702;48.370;10.794;2024-03-02T07:49:39;7.53;;;5.68;;
60867;SDS011;46702;48.370;10.794;2024-03-02T07:52:05;9.93;;;7.53;;
60867;SDS011;46702;48.370;10.794;2024-03-02T07:54:31;7.72;;;5.95;;
60867;SDS011;46702;48.370;10.794;2024-03-02T07:56:56;8.55;;;5.80;;
60867;SDS011;46702;48.370;10.794;2024-03-02T07:59:22;8.55;;;6.55;;
60867;SDS011;46702;48.370;10.794;2024-03-02T08:01:49;7.28;;;5.60;;
60867;SDS011;46702;48.370;10.794;2024-03-02T08:04:15;4.75;;;4.25;;
60867;SDS011;46702;48.370;10.794;2024-03-02T08:06:41;7.60;;;6.05;;
60867;SDS011;46702;48.370;10.794;2024-03-02T08:09:06;10.52;;;6.95;;
60867;SDS011;46702;48.370;10.794;2024-03-02T08:11:35;11.75;;;7.20;;
60867;SDS011;46702;48.370;10.794;2024-03-02T08:14:01;8.35;;;6.55;;
60867;SDS011;46702;48.370;10.794;2024-03-02T08:16:27;12.95;;;7.40;;
60867;SDS011;46702;48.370;10.794;2024-03-02T08:18:52;8.55;;;5.80;;
60867;SDS011;46702;48.370;10.794;2024-03-02T08:21:18;6.03;;;4.25;;
60867;SDS011;46702;48.370;10.794;2024-03-02T08:23:44;8.38;;;6.45;;
60867;SDS011;46702;48.370;10.794;2024-03-02T08:26:10;9.63;;;7.10;;
60867;SDS011;46702;48.370;10.794;2024-03-02T08:28:36;8.40;;;6.85;;
60867;SDS011;46702;48.370;10.794;2024-03-02T08:31:05;9.18;;;5.43;;
60867;SDS011;46702;48.370;10.794;2024-03-02T08:33:32;9.77;;;7.07;;
60867;SDS011;46702;48.370;10.794;2024-03-02T08:35:57;10.27;;;6.88;;
60867;SDS011;46702;48.370;10.794;2024-03-02T08:38:23;8.52;;;6.32;;
60867;SDS011;46702;48.370;10.794;2024-03-02T08:40:49;9.32;;;6.82;;
60867;SDS011;46702;48.370;10.794;2024-03-02T08:43:15;8.77;;;7.00;;
60867;SDS011;46702;48.370;10.794;2024-03-02T08:45:41;8.93;;;6.53;;
60867;SDS011;46702;48.370;10.794;2024-03-02T08:48:07;9.00;;;6.88;;
60867;SDS011;46702;48.370;10.794;2024-03-02T08:50:33;10.43;;;7.15;;
60867;SDS011;46702;48.370;10.794;2024-03-02T08:52:59;11.60;;;7.22;;
60867;SDS011;46702;48.370;10.794;2024-03-02T08:55:26;9.68;;;6.70;;
60867;SDS011;46702;48.370;10.794;2024-03-02T08:57:51;8.65;;;6.65;;
60867;SDS011;46702;48.370;10.794;2024-03-02T09:00:21;8.10;;;6.30;;
60867;SDS011;46702;48.370;10.794;2024-03-02T09:02:47;9.63;;;6.97;;
60867;SDS011;46702;48.370;10.794;2024-03-02T09:05:13;11.80;;;6.85;;
60867;SDS011;46702;48.370;10.794;2024-03-02T09:07:38;9.98;;;6.68;;
60867;SDS011;46702;48.370;10.794;2024-03-02T09:10:07;8.30;;;6.10;;
60867;SDS011;46702;48.370;10.794;2024-03-02T09:12:34;8.40;;;6.13;;
60867;SDS011;46702;48.370;10.794;2024-03-02T09:15:00;6.35;;;4.90;;
60867;SDS011;46702;48.370;10.794;2024-03-02T09:17:29;6.97;;;5.43;;
60867;SDS011;46702;48.370;10.794;2024-03-02T09:19:55;5.53;;;3.53;;
60867;SDS011;46702;48.370;10.794;2024-03-02T09:22:21;4.38;;;3.72;;
60867;SDS011;46702;48.370;10.794;2024-03-02T09:24:47;4.93;;;4.00;;
60867;SDS011;46702;48.370;10.794;2024-03-02T09:27:12;4.13;;;3.45;;
60867;SDS011;46702;48.370;10.794;2024-03-02T09:29:38;4.18;;;3.42;;
60867;SDS011;46702;48.370;10.794;2024-03-02T09:32:04;2.83;;;2.53;;
60867;SDS011;46702;48.370;10.794;2024-03-02T09:34:31;5.40;;;3.53;;
60867;SDS011;46702;48.370;10.794;2024-03-02T09:36:57;5.25;;;3.45;;
60867;SDS011;46702;48.370;10.794;2024-03-02T09:39:23;4.45;;;3.30;;
60867;SDS011;46702;48.370;10.794;2024-03-02T09:41:50;3.15;;;2.85;;
60867;SDS011;46702;48.370;10.794;2024-03-02T09:44:19;4.25;;;3.03;;
60867;SDS011;46702;48.370;10.794;2024-03-02T09:46:48;3.03;;;2.70;;
60867;SDS011;46702;48.370;10.794;2024-03-02T09:49:14;3.33;;;3.03;;
60867;SDS011;46702;48.370;10.794;2024-03-02T09:51:40;4.40;;;2.88;;
60867;SDS011;46702;48.370;10.794;2024-03-02T09:54:07;3.30;;;2.70;;
60867;SDS011;46702;48.370;10.794;2024-03-02T09:56:33;2.97;;;2.65;;
60867;SDS011;46702;48.370;10.794;2024-03-02T09:59:01;3.55;;;3.22;;
60867;SDS011;46702;48.370;10.794;2024-03-02T10:01:26;4.82;;;3.17;;
60867;SDS011;46702;48.370;10.794;2024-03-02T10:03:52;3.20;;;2.90;;
60867;SDS011;46702;48.370;10.794;2024-03-02T10:08:48;3.42;;;2.90;;
60867;SDS011;46702;48.370;10.794;2024-03-02T10:14:10;2.70;;;2.47;;
60867;SDS011;46702;48.370;10.794;2024-03-02T10:16:38;3.20;;;2.58;;
60867;SDS011;46702;48.370;10.794;2024-03-02T10:19:20;3.78;;;3.10;;
60867;SDS011;46702;48.370;10.794;2024-03-02T10:21:47;5.85;;;3.55;;
60867;SDS011;46702;48.370;10.794;2024-03-02T10:24:14;3.42;;;2.92;;
60867;SDS011;46702;48.370;10.794;2024-03-02T10:26:40;3.47;;;2.97;;
60867;SDS011;46702;48.370;10.794;2024-03-02T10:29:10;4.43;;;3.40;;
60867;SDS011;46702;48.370;10.794;2024-03-02T10:31:37;3.03;;;2.63;;
60867;SDS011;46702;48.370;10.794;2024-03-02T10:34:03;2.60;;;2.22;;
60867;SDS011;46702;48.370;10.794;2024-03-02T10:36:29;2.20;;;1.90;;
60867;SDS011;46702;48.370;10.794;2024-03-02T10:38:58;3.10;;;2.10;;
60867;SDS011;46702;48.370;10.794;2024-03-02T10:41:24;2.30;;;2.10;;
60867;SDS011;46702;48.370;10.794;2024-03-02T10:43:52;2.42;;;2.10;;
60867;SDS011;46702;48.370;10.794;2024-03-02T10:46:26;2.50;;;2.20;;
60867;SDS011;46702;48.370;10.794;2024-03-02T10:48:56;3.25;;;2.17;;
60867;SDS011;46702;48.370;10.794;2024-03-02T10:51:26;2.63;;;2.20;;
60867;SDS011;46702;48.370;10.794;2024-03-02T10:53:54;2.75;;;2.13;;
60867;SDS011;46702;48.370;10.794;2024-03-02T10:56:30;2.50;;;2.30;;
60867;SDS011;46702;48.370;10.794;2024-03-02T10:59:16;3.13;;;2.72;;
60867;SDS011;46702;48.370;10.794;2024-03-02T11:01:47;2.88;;;1.88;;
60867;SDS011;46702;48.370;10.794;2024-03-02T11:04:17;2.25;;;2.00;;
60867;SDS011;46702;48.370;10.794;2024-03-02T11:06:49;2.35;;;1.90;;
60867;SDS011;46702;48.370;10.794;2024-03-02T11:09:18;2.45;;;1.80;;
60867;SDS011;46702;48.370;10.794;2024-03-02T11:14:56;2.05;;;1.83;;
60867;SDS011;46702;48.370;10.794;2024-03-02T11:17:24;2.83;;;2.37;;
60867;SDS011;46702;48.370;10.794;2024-03-02T11:19:51;2.70;;;2.50;;
60867;SDS011;46702;48.370;10.794;2024-03-02T11:22:17;2.95;;;2.63;;
60867;SDS011;46702;48.370;10.794;2024-03-02T11:24:50;3.58;;;3.10;;
60867;SDS011;46702;48.370;10.794;2024-03-02T11:28:00;3.03;;;2.55;;
60867;SDS011;46702;48.370;10.794;2024-03-02T11:33:04;3.40;;;3.08;;
60867;SDS011;46702;48.370;10.794;2024-03-02T11:38:04;4.15;;;3.03;;
60867;SDS011;46702;48.370;10.794;2024-03-02T11:40:32;5.10;;;3.72;;
60867;SDS011;46702;48.370;10.794;2024-03-02T11:42:59;4.30;;;3.40;;
60867;SDS011;46702;48.370;10.794;2024-03-02T11:45:25;5.20;;;4.13;;
60867;SDS011;46702;48.370;10.794;2024-03-02T11:47:58;5.20;;;3.78;;
60867;SDS011;46702;48.370;10.794;2024-03-02T11:50:34;6.75;;;3.50;;
60867;SDS011;46702;48.370;10.794;2024-03-02T11:53:02;3.30;;;2.92;;
60867;SDS011;46702;48.370;10.794;2024-03-02T11:55:36;5.97;;;3.17;;
60867;SDS011;46702;48.370;10.794;2024-03-02T11:58:05;5.28;;;3.83;;
60867;SDS011;46702;48.370;10.794;2024-03-02T12:00:32;7.97;;;4.38;;
60867;SDS011;46702;48.370;10.794;2024-03-02T12:03:01;4.93;;;3.95;;
60867;SDS011;46702;48.370;10.794;2024-03-02T12:05:31;5.30;;;4.07;;
60867;SDS011;46702;48.370;10.794;2024-03-02T12:07:58;5.30;;;3.85;;
60867;SDS011;46702;48.370;10.794;2024-03-02T12:10:25;8.87;;;4.73;;
60867;SDS011;46702;48.370;10.794;2024-03-02T12:12:56;9.05;;;5.45;;
60867;SDS011;46702;48.370;10.794;2024-03-02T12:15:23;6.60;;;5.10;;
60867;SDS011;46702;48.370;10.794;2024-03-02T12:17:53;7.30;;;5.22;;
60867;SDS011;46702;48.370;10.794;2024-03-02T12:20:23;6.18;;;5.15;;
60867;SDS011;46702;48.370;10.794;2024-03-02T12:22:53;9.50;;;5.88;;
60867;SDS011;46702;48.370;10.794;2024-03-02T12:25:20;9.18;;;5.45;;
60867;SDS011;46702;48.370;10.794;2024-03-02T12:27:48;6.82;;;5.20;;
60867;SDS011;46702;48.370;10.794;2024-03-02T12:30:16;8.43;;;5.75;;
60867;SDS011;46702;48.370;10.794;2024-03-02T12:32:42;8.50;;;5.65;;
60867;SDS011;46702;48.370;10.794;2024-03-02T12:35:10;8.20;;;5.63;;
60867;SDS011;46702;48.370;10.794;2024-03-02T12:37:46;7.95;;;5.80;;
60867;SDS011;46702;48.370;10.794;2024-03-02T12:40:13;8.23;;;6.80;;
60867;SDS011;46702;48.370;10.794;2024-03-02T12:42:43;9.43;;;6.95;;
60867;SDS011;46702;48.370;10.794;2024-03-02T12:45:10;8.75;;;5.55;;
60867;SDS011;46702;48.370;10.794;2024-03-02T12:47:36;8.98;;;5.53;;
60867;SDS011;46702;48.370;10.794;2024-03-02T12:50:05;9.13;;;6.15;;
60867;SDS011;46702;48.370;10.794;2024-03-02T12:52:32;8.15;;;5.72;;
60867;SDS011;46702;48.370;10.794;2024-03-02T12:54:59;7.07;;;5.30;;
60867;SDS011;46702;48.370;10.794;2024-03-02T12:57:28;11.57;;;5.90;;
60867;SDS011;46702;48.370;10.794;2024-03-02T13:00:01;9.00;;;5.57;;
60867;SDS011;46702;48.370;10.794;2024-03-02T13:02:39;9.60;;;6.47;;
60867;SDS011;46702;48.370;10.794;2024-03-02T13:05:06;15.48;;;8.85;;
60867;SDS011;46702;48.370;10.794;2024-03-02T13:07:36;12.90;;;8.90;;
60867;SDS011;46702;48.370;10.794;2024-03-02T13:10:06;14.68;;;8.65;;
60867;SDS011;46702;48.370;10.794;2024-03-02T13:12:37;14.45;;;9.30;;
60867;SDS011;46702;48.370;10.794;2024-03-02T13:15:03;13.18;;;8.23;;
60867;SDS011;46702;48.370;10.794;2024-03-02T13:17:30;14.38;;;8.77;;
60867;SDS011;46702;48.370;10.794;2024-03-02T13:19:58;15.85;;;10.10;;
60867;SDS011;46702;48.370;10.794;2024-03-02T13:22:24;15.57;;;9.52;;
60867;SDS011;46702;48.370;10.794;2024-03-02T13:24:51;16.45;;;9.05;;
60867;SDS011;46702;48.370;10.794;2024-03-02T13:27:17;13.77;;;7.72;;
60867;SDS011;46702;48.370;10.794;2024-03-02T13:29:46;12.85;;;8.13;;
60867;SDS011;46702;48.370;10.794;2024-03-02T13:32:12;15.60;;;8.32;;
60867;SDS011;46702;48.370;10.794;2024-03-02T13:34:42;17.08;;;8.80;;
60867;SDS011;46702;48.370;10.794;2024-03-02T13:37:08;15.15;;;8.13;;
60867;SDS011;46702;48.370;10.794;2024-03-02T13:39:34;14.48;;;8.18;;
60867;SDS011;46702;48.370;10.794;2024-03-02T13:42:08;13.98;;;8.18;;
60867;SDS011;46702;48.370;10.794;2024-03-02T13:44:36;16.80;;;8.55;;
60867;SDS011;46702;48.370;10.794;2024-03-02T13:47:02;12.85;;;7.88;;
60867;SDS011;46702;48.370;10.794;2024-03-02T13:49:29;16.23;;;8.40;;
60867;SDS011;46702;48.370;10.794;2024-03-02T13:52:07;14.18;;;7.30;;
60867;SDS011;46702;48.370;10.794;2024-03-02T13:54:41;16.30;;;8.23;;
60867;SDS011;46702;48.370;10.794;2024-03-02T13:57:11;12.80;;;8.27;;
60867;SDS011;46702;48.370;10.794;2024-03-02T13:59:37;17.02;;;8.98;;
60867;SDS011;46702;48.370;10.794;2024-03-02T14:02:07;16.52;;;8.75;;
60867;SDS011;46702;48.370;10.794;2024-03-02T14:04:33;14.80;;;8.90;;
60867;SDS011;46702;48.370;10.794;2024-03-02T14:07:01;14.77;;;9.18;;
60867;SDS011;46702;48.370;10.794;2024-03-02T14:09:27;16.63;;;8.95;;
60867;SDS011;46702;48.370;10.794;2024-03-02T14:11:53;14.38;;;8.85;;
60867;SDS011;46702;48.370;10.794;2024-03-02T14:14:20;16.63;;;9.30;;
60867;SDS011;46702;48.370;10.794;2024-03-02T14:16:46;14.30;;;8.45;;
60867;SDS011;46702;48.370;10.794;2024-03-02T14:19:12;14.65;;;9.05;;
60867;SDS011;46702;48.370;10.794;2024-03-02T14:24:06;17.80;;;10.48;;
60867;SDS011;46702;48.370;10.794;2024-03-02T14:26:32;14.98;;;9.07;;
60867;SDS011;46702;48.370;10.794;2024-03-02T14:28:58;17.73;;;10.05;;
60867;SDS011;46702;48.370;10.794;2024-03-02T14:31:27;16.08;;;9.77;;
60867;SDS011;46702;48.370;10.794;2024-03-02T14:33:53;16.67;;;9.45;;
60867;SDS011;46702;48.370;10.794;2024-03-02T14:36:19;19.38;;;9.80;;
60867;SDS011;46702;48.370;10.794;2024-03-02T14:38:45;14.27;;;9.38;;
60867;SDS011;46702;48.370;10.794;2024-03-02T14:41:14;17.55;;;9.52;;
60867;SDS011;46702;48.370;10.794;2024-03-02T14:43:43;16.40;;;9.30;;
60867;SDS011;46702;48.370;10.794;2024-03-02T14:46:09;14.52;;;7.22;;
60867;SDS011;46702;48.370;10.794;2024-03-02T14:48:38;14.13;;;7.20;;
60867;SDS011;46702;48.370;10.794;2024-03-02T14:51:04;12.88;;;7.63;;